CMA CGM Herodote — MFEP — position and weather

sailwx.info

Track history (hours):
 
Tides and Currents Weather Stations Pressure Air Temp Water Temp Dewpoint Dewpoint Depression Visibility Wind Speed Wind Dir Waves Ship Positions

CMA CGM Herodote

Last reported at 2014-Nov-22 20:32 UTC. Time now 2014-Nov-23 21:12 UTC.
Position N 50°01' W 002°41'.

Length 170 m; draft 9.5 m.

Type: Ship (hazmat cat A). MMSI: 235051085.

Date/timePositionNaut miles runAvg speedWind from/ knotsBaromVisibWave heightAir tempDewpointWater temp
2014-Nov-22 20:32N 50°01' W 002°41'8416.8
2014-Nov-22 15:33N 49°39' W 000°36'2019.8
2014-Nov-22 14:33N 49°31' W 000°08'1211.6
2014-Nov-22 13:32N 49°29' E 000°10'0 0.0
2014-Nov-22 12:32N 49°29' E 000°10'0 0.0
2014-Nov-22 11:32N 49°29' E 000°10'0 0.0
2014-Nov-22 10:32N 49°29' E 000°10'0 0.0
2014-Nov-22 09:32N 49°29' E 000°10'0 0.0
2014-Nov-22 08:32N 49°29' E 000°10'0 0.0
2014-Nov-22 07:32N 49°29' E 000°10'0 0.0
2014-Nov-22 06:32N 49°29' E 000°10'0 0.0
2014-Nov-22 05:32N 49°29' E 000°10'0 0.0
2014-Nov-22 04:32N 49°29' E 000°10'0 0.0
2014-Nov-22 03:32N 49°29' E 000°10'0 0.0
2014-Nov-22 02:32N 49°29' E 000°10'0 0.0
2014-Nov-22 01:32N 49°29' E 000°10'0 0.0
2014-Nov-22 00:32N 49°29' E 000°10'0 0.0
2014-Nov-21 23:32N 49°29' E 000°10'0 0.0
2014-Nov-21 22:32N 49°29' E 000°10'0 0.0
2014-Nov-21 21:32N 49°29' E 000°10'0 0.0
2014-Nov-21 20:32N 49°29' E 000°10'0 0.0
2014-Nov-21 19:32N 49°29' E 000°10'0 0.0
2014-Nov-21 18:32N 49°29' E 000°10'0 0.0
2014-Nov-21 17:32N 49°29' E 000°10'0 0.0
2014-Nov-21 16:32N 49°29' E 000°10'0 0.0
2014-Nov-21 15:32N 49°29' E 000°10'0 0.0
2014-Nov-21 14:32N 49°29' E 000°10'4 3.9
2014-Nov-21 13:33N 49°29' E 000°04'10 9.6
2014-Nov-21 12:33N 49°34' W 000°08'1 0.7
2014-Nov-21 11:28N 49°35' W 000°09'0 0.0
2014-Nov-21 10:31N 49°35' W 000°09'2 2.5
2014-Nov-21 09:33N 49°36' W 000°12'50 9.2
2014-Nov-21 04:09N 50°26' W 000°06'1710.5
2014-Nov-21 02:33N 50°32' E 000°18'1110.7
2014-Nov-21 01:33N 50°36' E 000°34'10 9.9
2014-Nov-21 00:33N 50°42' E 000°46'9 9.1
2014-Nov-20 23:33N 50°48' E 000°57'9 8.2
2014-Nov-20 22:31N 50°54' E 001°07'8 7.8
2014-Nov-20 21:33N 50°59' E 001°15'8 8.3
2014-Nov-20 20:33N 51°04' E 001°26'1010.2
2014-Nov-20 19:34N 51°10' E 001°39'1111.2
2014-Nov-20 18:33N 51°19' E 001°50'1313.1
2014-Nov-20 17:33N 51°29' E 002°02'1413.9
2014-Nov-20 16:33N 51°40' E 002°17'4611.5
2014-Nov-20 12:32N 52°03' E 003°21'1211.9
2014-Nov-20 11:33N 52°04' E 003°40'1010.1
2014-Nov-20 10:33N 52°02' E 003°56'1313.2
2014-Nov-20 09:33N 51°55' E 004°14'6 6.2
2014-Nov-20 08:33N 51°53' E 004°24'0 0.0
2014-Nov-20 07:33N 51°53' E 004°24'0 0.0
2014-Nov-20 06:33N 51°53' E 004°24'0 0.0
2014-Nov-20 05:33N 51°53' E 004°24'0 0.0
2014-Nov-20 04:33N 51°53' E 004°24'0 0.0
2014-Nov-20 03:33N 51°53' E 004°24'0 0.0
2014-Nov-20 02:33N 51°53' E 004°24'0 0.0
2014-Nov-20 01:33N 51°53' E 004°24'0 0.0
2014-Nov-20 00:33N 51°53' E 004°24'0 0.0
2014-Nov-19 23:33N 51°53' E 004°24'0 0.0
2014-Nov-19 22:33N 51°53' E 004°24'0 0.0
2014-Nov-19 21:33N 51°53' E 004°24'0 0.0
2014-Nov-19 20:33N 51°53' E 004°24'0 0.0
2014-Nov-19 19:33N 51°53' E 004°24'0 0.0
2014-Nov-19 18:33N 51°53' E 004°24'0 0.0
2014-Nov-19 17:33N 51°53' E 004°24'0 0.0
2014-Nov-19 16:33N 51°53' E 004°24'0 0.0
2014-Nov-19 15:33N 51°53' E 004°24'0 0.0
2014-Nov-19 14:33N 51°53' E 004°24'0 0.0
2014-Nov-19 13:33N 51°53' E 004°24'0 0.0
2014-Nov-19 12:33N 51°53' E 004°24'0 0.0
2014-Nov-19 11:33N 51°53' E 004°24'0 0.0
2014-Nov-19 10:33N 51°53' E 004°24'0 0.0
2014-Nov-19 09:33N 51°53' E 004°24'0 0.0
2014-Nov-19 08:33N 51°53' E 004°24'0 0.0
2014-Nov-19 07:33N 51°53' E 004°24'0 0.0
2014-Nov-19 06:33N 51°53' E 004°24'0 0.0
2014-Nov-19 05:33N 51°53' E 004°24'0 0.0
2014-Nov-19 04:33N 51°53' E 004°24'0 0.0
2014-Nov-19 03:33N 51°53' E 004°24'0 0.1
2014-Nov-19 02:33N 51°53' E 004°24'4 4.0
2014-Nov-19 01:33N 51°54' E 004°17'1211.8
2014-Nov-19 00:33N 51°60' E 004°01'1212.3
2014-Nov-18 23:33N 51°58' E 003°41'1513.4
2014-Nov-18 22:26N 51°54' E 003°18'3615.6
2014-Nov-18 20:08N 51°37' E 002°27'1016.5
2014-Nov-18 19:32N 51°30' E 002°16'1616.7
2014-Nov-18 18:33N 51°15' E 002°05'1716.7
2014-Nov-18 17:33N 51°04' E 001°44'2216.6
2014-Nov-18 16:14N 50°46' E 001°25'1217.2
2014-Nov-18 15:30N 50°36' E 001°13'1717.5
2014-Nov-18 14:33N 50°28' E 000°51'1817.7
2014-Nov-18 13:33N 50°24' E 000°24'  
2014-Nov-15 09:14N 38°01' W 009°38'5 7.1
2014-Nov-15 08:33N 37°57' W 009°37'7 7.2
2014-Nov-15 07:33N 37°50' W 009°35'7 7.2
2014-Nov-15 06:33N 37°43' W 009°33'7 7.4
2014-Nov-15 05:33N 37°35' W 009°31'8 7.6
2014-Nov-15 04:32N 37°28' W 009°29'7 7.3
2014-Nov-15 03:33N 37°21' W 009°26'58 6.4
2014-Nov-14 18:25N 36°37' W 008°38'11 8.8
2014-Nov-14 17:08N 36°33' W 008°25'141 8.4
2014-Nov-14 00:14N 35°57' W 005°36'5 7.2
2014-Nov-13 23:32N 35°59' W 005°30'6 6.4
2014-Nov-13 22:33N 36°03' W 005°23'5 4.3
2014-Nov-13 21:28N 36°07' W 005°24'0 0.0
2014-Nov-13 20:31N 36°07' W 005°24'0 0.1
2014-Nov-13 19:28N 36°07' W 005°24'0 0.0
2014-Nov-13 18:28N 36°07' W 005°25'0 0.1
2014-Nov-13 17:25N 36°07' W 005°24'0 0.0
2014-Nov-13 16:31N 36°07' W 005°24'0 0.2
2014-Nov-13 15:31N 36°07' W 005°25'0 0.1
2014-Nov-13 14:31N 36°07' W 005°25'0 0.0
2014-Nov-13 13:25N 36°07' W 005°25'0 0.1
2014-Nov-13 12:31N 36°07' W 005°24'0 0.2
2014-Nov-13 11:31N 36°07' W 005°25'0 0.1
2014-Nov-13 10:28N 36°07' W 005°24'0 0.1
2014-Nov-13 09:28N 36°07' W 005°24'0 0.0
2014-Nov-13 08:31N 36°07' W 005°24'0 0.1
2014-Nov-13 07:31N 36°07' W 005°24'0 0.1
2014-Nov-13 06:31N 36°07' W 005°24'0 0.0
2014-Nov-13 05:31N 36°07' W 005°24'0 0.1
2014-Nov-13 04:31N 36°07' W 005°24'0 0.1
2014-Nov-13 03:31N 36°07' W 005°24'0 0.1
2014-Nov-13 01:31N 36°07' W 005°25'0 0.0
2014-Nov-13 00:22N 36°07' W 005°25'0 0.1
2014-Nov-12 22:31N 36°07' W 005°24'0 0.0
2014-Nov-12 21:28N 36°07' W 005°24'  
Track history (hours):
 
Tides and Currents Weather Stations Pressure Air Temp Water Temp Dewpoint Dewpoint Depression Visibility Wind Speed Wind Dir Waves Ship Positions

CMA CGM Herodote

Last reported at 2014-Nov-22 20:32 UTC. Time now 2014-Nov-23 21:12 UTC.
Position N 50°01' W 002°41'.

Length 170 m; draft 9.5 m.

Type: Ship (hazmat cat A). MMSI: 235051085.

Date/timePositionNaut miles runAvg speedWind from/ knotsBaromVisibWave heightAir tempDewpointWater temp
2014-Nov-22 20:32N 50°01' W 002°41'8416.8
2014-Nov-22 15:33N 49°39' W 000°36'2019.8
2014-Nov-22 14:33N 49°31' W 000°08'1211.6
2014-Nov-22 13:32N 49°29' E 000°10'0 0.0
2014-Nov-22 12:32N 49°29' E 000°10'0 0.0
2014-Nov-22 11:32N 49°29' E 000°10'0 0.0
2014-Nov-22 10:32N 49°29' E 000°10'0 0.0
2014-Nov-22 09:32N 49°29' E 000°10'0 0.0
2014-Nov-22 08:32N 49°29' E 000°10'0 0.0
2014-Nov-22 07:32N 49°29' E 000°10'0 0.0
2014-Nov-22 06:32N 49°29' E 000°10'0 0.0
2014-Nov-22 05:32N 49°29' E 000°10'0 0.0
2014-Nov-22 04:32N 49°29' E 000°10'0 0.0
2014-Nov-22 03:32N 49°29' E 000°10'0 0.0
2014-Nov-22 02:32N 49°29' E 000°10'0 0.0
2014-Nov-22 01:32N 49°29' E 000°10'0 0.0
2014-Nov-22 00:32N 49°29' E 000°10'0 0.0
2014-Nov-21 23:32N 49°29' E 000°10'0 0.0
2014-Nov-21 22:32N 49°29' E 000°10'0 0.0
2014-Nov-21 21:32N 49°29' E 000°10'0 0.0
2014-Nov-21 20:32N 49°29' E 000°10'0 0.0
2014-Nov-21 19:32N 49°29' E 000°10'0 0.0
2014-Nov-21 18:32N 49°29' E 000°10'0 0.0
2014-Nov-21 17:32N 49°29' E 000°10'0 0.0
2014-Nov-21 16:32N 49°29' E 000°10'0 0.0
2014-Nov-21 15:32N 49°29' E 000°10'0 0.0
2014-Nov-21 14:32N 49°29' E 000°10'4 3.9
2014-Nov-21 13:33N 49°29' E 000°04'10 9.6
2014-Nov-21 12:33N 49°34' W 000°08'1 0.7
2014-Nov-21 11:28N 49°35' W 000°09'0 0.0
2014-Nov-21 10:31N 49°35' W 000°09'2 2.5
2014-Nov-21 09:33N 49°36' W 000°12'50 9.2
2014-Nov-21 04:09N 50°26' W 000°06'1710.5
2014-Nov-21 02:33N 50°32' E 000°18'1110.7
2014-Nov-21 01:33N 50°36' E 000°34'10 9.9
2014-Nov-21 00:33N 50°42' E 000°46'9 9.1
2014-Nov-20 23:33N 50°48' E 000°57'9 8.2
2014-Nov-20 22:31N 50°54' E 001°07'8 7.8
2014-Nov-20 21:33N 50°59' E 001°15'8 8.3
2014-Nov-20 20:33N 51°04' E 001°26'1010.2
2014-Nov-20 19:34N 51°10' E 001°39'1111.2
2014-Nov-20 18:33N 51°19' E 001°50'1313.1
2014-Nov-20 17:33N 51°29' E 002°02'1413.9
2014-Nov-20 16:33N 51°40' E 002°17'4611.5
2014-Nov-20 12:32N 52°03' E 003°21'1211.9
2014-Nov-20 11:33N 52°04' E 003°40'1010.1
2014-Nov-20 10:33N 52°02' E 003°56'1313.2
2014-Nov-20 09:33N 51°55' E 004°14'6 6.2
2014-Nov-20 08:33N 51°53' E 004°24'0 0.0
2014-Nov-20 07:33N 51°53' E 004°24'0 0.0
2014-Nov-20 06:33N 51°53' E 004°24'0 0.0
2014-Nov-20 05:33N 51°53' E 004°24'0 0.0
2014-Nov-20 04:33N 51°53' E 004°24'0 0.0
2014-Nov-20 03:33N 51°53' E 004°24'0 0.0
2014-Nov-20 02:33N 51°53' E 004°24'0 0.0
2014-Nov-20 01:33N 51°53' E 004°24'0 0.0
2014-Nov-20 00:33N 51°53' E 004°24'0 0.0
2014-Nov-19 23:33N 51°53' E 004°24'0 0.0
2014-Nov-19 22:33N 51°53' E 004°24'0 0.0
2014-Nov-19 21:33N 51°53' E 004°24'0 0.0
2014-Nov-19 20:33N 51°53' E 004°24'0 0.0
2014-Nov-19 19:33N 51°53' E 004°24'0 0.0
2014-Nov-19 18:33N 51°53' E 004°24'0 0.0
2014-Nov-19 17:33N 51°53' E 004°24'0 0.0
2014-Nov-19 16:33N 51°53' E 004°24'0 0.0
2014-Nov-19 15:33N 51°53' E 004°24'0 0.0
2014-Nov-19 14:33N 51°53' E 004°24'0 0.0
2014-Nov-19 13:33N 51°53' E 004°24'0 0.0
2014-Nov-19 12:33N 51°53' E 004°24'0 0.0
2014-Nov-19 11:33N 51°53' E 004°24'0 0.0
2014-Nov-19 10:33N 51°53' E 004°24'0 0.0
2014-Nov-19 09:33N 51°53' E 004°24'0 0.0
2014-Nov-19 08:33N 51°53' E 004°24'0 0.0
2014-Nov-19 07:33N 51°53' E 004°24'0 0.0
2014-Nov-19 06:33N 51°53' E 004°24'0 0.0
2014-Nov-19 05:33N 51°53' E 004°24'0 0.0
2014-Nov-19 04:33N 51°53' E 004°24'0 0.0
2014-Nov-19 03:33N 51°53' E 004°24'0 0.1
2014-Nov-19 02:33N 51°53' E 004°24'4 4.0
2014-Nov-19 01:33N 51°54' E 004°17'1211.8
2014-Nov-19 00:33N 51°60' E 004°01'1212.3
2014-Nov-18 23:33N 51°58' E 003°41'1513.4
2014-Nov-18 22:26N 51°54' E 003°18'3615.6
2014-Nov-18 20:08N 51°37' E 002°27'1016.5
2014-Nov-18 19:32N 51°30' E 002°16'1616.7
2014-Nov-18 18:33N 51°15' E 002°05'1716.7
2014-Nov-18 17:33N 51°04' E 001°44'2216.6
2014-Nov-18 16:14N 50°46' E 001°25'1217.2
2014-Nov-18 15:30N 50°36' E 001°13'1717.5
2014-Nov-18 14:33N 50°28' E 000°51'1817.7
2014-Nov-18 13:33N 50°24' E 000°24'  
2014-Nov-15 09:14N 38°01' W 009°38'5 7.1
2014-Nov-15 08:33N 37°57' W 009°37'7 7.2
2014-Nov-15 07:33N 37°50' W 009°35'7 7.2
2014-Nov-15 06:33N 37°43' W 009°33'7 7.4
2014-Nov-15 05:33N 37°35' W 009°31'8 7.6
2014-Nov-15 04:32N 37°28' W 009°29'7 7.3
2014-Nov-15 03:33N 37°21' W 009°26'58 6.4
2014-Nov-14 18:25N 36°37' W 008°38'11 8.8
2014-Nov-14 17:08N 36°33' W 008°25'141 8.4
2014-Nov-14 00:14N 35°57' W 005°36'5 7.2
2014-Nov-13 23:32N 35°59' W 005°30'6 6.4
2014-Nov-13 22:33N 36°03' W 005°23'5 4.3
2014-Nov-13 21:28N 36°07' W 005°24'0 0.0
2014-Nov-13 20:31N 36°07' W 005°24'0 0.1
2014-Nov-13 19:28N 36°07' W 005°24'0 0.0
2014-Nov-13 18:28N 36°07' W 005°25'0 0.1
2014-Nov-13 17:25N 36°07' W 005°24'0 0.0
2014-Nov-13 16:31N 36°07' W 005°24'0 0.2
2014-Nov-13 15:31N 36°07' W 005°25'0 0.1
2014-Nov-13 14:31N 36°07' W 005°25'0 0.0
2014-Nov-13 13:25N 36°07' W 005°25'0 0.1
2014-Nov-13 12:31N 36°07' W 005°24'0 0.2
2014-Nov-13 11:31N 36°07' W 005°25'0 0.1
2014-Nov-13 10:28N 36°07' W 005°24'0 0.1
2014-Nov-13 09:28N 36°07' W 005°24'0 0.0
2014-Nov-13 08:31N 36°07' W 005°24'0 0.1
2014-Nov-13 07:31N 36°07' W 005°24'0 0.1
2014-Nov-13 06:31N 36°07' W 005°24'0 0.0
2014-Nov-13 05:31N 36°07' W 005°24'0 0.1
2014-Nov-13 04:31N 36°07' W 005°24'0 0.1
2014-Nov-13 03:31N 36°07' W 005°24'0 0.1
2014-Nov-13 01:31N 36°07' W 005°25'0 0.0
2014-Nov-13 00:22N 36°07' W 005°25'0 0.1
2014-Nov-12 22:31N 36°07' W 005°24'0 0.0
2014-Nov-12 21:28N 36°07' W 005°24'  

Dump ship's entire track history